createdAt,value
2022-10-23T00:01:16.815Z,12.08
2022-10-23T00:03:44.721Z,12.10
2022-10-23T00:06:13.007Z,12.14
2022-10-23T00:08:40.973Z,12.23
2022-10-23T00:11:10.166Z,12.23
2022-10-23T00:13:37.900Z,12.19
2022-10-23T00:16:05.465Z,12.24
2022-10-23T00:18:32.910Z,12.32
2022-10-23T00:20:59.943Z,12.38
2022-10-23T00:23:26.931Z,12.42
2022-10-23T00:25:53.945Z,12.48
2022-10-23T00:28:21.086Z,12.57
2022-10-23T00:30:48.094Z,12.62
2022-10-23T00:33:15.928Z,12.64
2022-10-23T00:35:43.846Z,12.65
2022-10-23T00:38:11.583Z,12.68
2022-10-23T00:40:39.750Z,13.03
2022-10-23T00:43:07.483Z,13.26
2022-10-23T00:45:35.050Z,13.35
2022-10-23T00:48:03.395Z,13.17
2022-10-23T00:50:33.487Z,13.24
2022-10-23T00:53:03.568Z,13.09
2022-10-23T00:55:32.549Z,12.95
2022-10-23T00:57:59.870Z,12.91
2022-10-23T01:00:30.745Z,12.94
2022-10-23T01:03:00.003Z,13.17
2022-10-23T01:05:39.175Z,13.41
2022-10-23T01:08:17.647Z,13.45
2022-10-23T01:10:53.005Z,13.63
2022-10-23T01:14:18.296Z,13.91
2022-10-23T01:17:10.119Z,14.00
2022-10-23T01:20:19.016Z,13.87
2022-10-23T01:23:21.456Z,13.44
2022-10-23T01:26:33.650Z,13.18
2022-10-23T01:29:29.264Z,13.23
2022-10-23T01:32:09.934Z,13.12
2022-10-23T01:35:11.957Z,13.05
2022-10-23T01:38:05.036Z,13.04
2022-10-23T01:40:48.323Z,13.02
2022-10-23T01:43:21.229Z,13.16
2022-10-23T01:45:54.360Z,13.10
2022-10-23T01:48:28.072Z,13.10
2022-10-23T01:50:59.077Z,13.05
2022-10-23T01:53:30.912Z,12.80
2022-10-23T01:56:01.471Z,12.49
2022-10-23T01:58:31.753Z,12.32
2022-10-23T02:01:03.763Z,12.25
2022-10-23T02:03:34.133Z,12.23
2022-10-23T02:06:01.716Z,12.19
2022-10-23T02:08:29.014Z,12.25
2022-10-23T02:11:08.474Z,12.31
2022-10-23T02:14:18.763Z,12.39
2022-10-23T02:16:51.868Z,12.47
2022-10-23T02:19:54.536Z,12.54
2022-10-23T02:22:31.324Z,12.62
2022-10-23T02:25:11.638Z,12.65
2022-10-23T02:27:54.113Z,12.67
2022-10-23T02:30:24.811Z,12.68
2022-10-23T02:33:06.431Z,12.62
2022-10-23T02:35:33.467Z,12.57
2022-10-23T02:38:33.615Z,12.40
2022-10-23T02:41:15.712Z,12.23
2022-10-23T02:44:42.362Z,12.15
2022-10-23T02:47:58.048Z,12.10
2022-10-23T02:50:57.759Z,12.07
2022-10-23T02:53:48.247Z,12.05
2022-10-23T02:56:58.515Z,12.08
2022-10-23T02:59:52.145Z,12.10
2022-10-23T03:02:26.223Z,12.18
2022-10-23T03:04:56.310Z,12.28
2022-10-23T03:07:26.418Z,12.35
2022-10-23T03:10:05.323Z,12.41
2022-10-23T03:12:33.247Z,12.49
2022-10-23T03:15:00.473Z,12.53
2022-10-23T03:17:27.633Z,12.58
2022-10-23T03:19:58.476Z,12.61
2022-10-23T03:22:25.732Z,12.68
2022-10-23T03:24:52.781Z,12.68
2022-10-23T03:27:19.816Z,12.69
2022-10-23T03:29:46.940Z,12.76
2022-10-23T03:32:15.521Z,12.76
2022-10-23T03:34:42.983Z,12.87
2022-10-23T03:37:10.185Z,12.84
2022-10-23T03:39:37.255Z,12.83
2022-10-23T03:42:04.569Z,12.85
2022-10-23T03:44:32.054Z,12.87
2022-10-23T03:46:59.241Z,13.00
2022-10-23T03:49:26.881Z,13.01
2022-10-23T03:51:54.147Z,13.11
2022-10-23T03:54:26.414Z,13.16
2022-10-23T03:56:56.634Z,13.11
2022-10-23T03:59:24.634Z,13.09
2022-10-23T04:01:51.908Z,13.04
2022-10-23T04:04:19.318Z,13.03
2022-10-23T04:06:46.414Z,13.37
2022-10-23T04:11:45.766Z,13.16
2022-10-23T04:14:14.039Z,13.23
2022-10-23T04:16:41.081Z,13.40
2022-10-23T04:19:08.043Z,13.26
2022-10-23T04:21:35.092Z,13.33
2022-10-23T04:24:02.126Z,13.25
2022-10-23T04:26:29.425Z,13.16
2022-10-23T04:28:56.505Z,13.08
2022-10-23T04:31:23.545Z,13.15
2022-10-23T04:33:50.611Z,13.26
2022-10-23T04:36:31.042Z,13.18
2022-10-23T04:39:04.139Z,12.99
2022-10-23T04:41:31.268Z,12.89
2022-10-23T04:43:58.378Z,12.94
2022-10-23T04:46:25.532Z,12.98
2022-10-23T04:48:52.573Z,13.07
2022-10-23T04:51:38.472Z,13.02
2022-10-23T04:54:25.792Z,12.98
2022-10-23T04:57:11.339Z,13.04
2022-10-23T04:59:54.949Z,13.01
2022-10-23T05:02:22.232Z,13.20
2022-10-23T05:04:50.201Z,13.08
2022-10-23T05:07:36.788Z,13.36
2022-10-23T05:10:14.337Z,13.48
2022-10-23T05:13:07.963Z,13.38
2022-10-23T05:15:35.115Z,13.36
2022-10-23T05:18:10.908Z,13.38
2022-10-23T05:20:40.023Z,13.45
2022-10-23T05:23:13.189Z,13.42
2022-10-23T05:25:42.941Z,13.71
2022-10-23T05:28:16.437Z,13.71
2022-10-23T05:30:43.779Z,13.66
2022-10-23T05:33:11.832Z,13.58
2022-10-23T05:35:44.657Z,13.52
2022-10-23T05:38:15.072Z,13.64
2022-10-23T05:40:43.182Z,13.89
2022-10-23T05:43:15.629Z,14.21
2022-10-23T05:46:05.389Z,14.43
2022-10-23T05:49:04.270Z,14.65
2022-10-23T05:51:40.443Z,14.72
2022-10-23T05:54:27.779Z,14.71
2022-10-23T05:57:15.161Z,15.07
2022-10-23T05:59:48.855Z,15.20
2022-10-23T06:02:47.818Z,15.28
2022-10-23T06:05:30.015Z,15.33
2022-10-23T06:08:21.187Z,15.32
2022-10-23T06:10:50.734Z,15.54
2022-10-23T06:13:18.700Z,15.76
2022-10-23T06:15:45.792Z,15.60
2022-10-23T06:18:21.909Z,15.59
2022-10-23T06:20:55.357Z,15.88
2022-10-23T06:23:25.786Z,15.81
2022-10-23T06:26:24.952Z,15.81
2022-10-23T06:29:14.773Z,15.86
2022-10-23T06:31:43.253Z,15.89
2022-10-23T06:34:12.395Z,16.01
2022-10-23T06:36:39.863Z,16.01
2022-10-23T06:39:32.096Z,16.07
2022-10-23T06:42:17.629Z,16.11
2022-10-23T06:45:17.459Z,15.95
2022-10-23T06:48:04.765Z,15.99
2022-10-23T06:50:50.554Z,16.16
2022-10-23T06:53:25.836Z,16.16
2022-10-23T06:56:05.740Z,16.34
2022-10-23T06:58:36.902Z,16.39
2022-10-23T07:01:14.009Z,16.36
2022-10-23T07:03:42.983Z,16.83
2022-10-23T07:06:11.237Z,16.95
2022-10-23T07:08:39.190Z,16.81
2022-10-23T07:11:23.963Z,16.79
2022-10-23T07:13:51.219Z,16.89
2022-10-23T07:16:23.351Z,16.93
2022-10-23T07:18:59.776Z,16.88
2022-10-23T07:21:46.893Z,16.90
2022-10-23T07:24:25.332Z,17.01
2022-10-23T07:26:57.116Z,17.12
2022-10-23T07:29:27.162Z,17.18
2022-10-23T07:31:54.339Z,17.27
2022-10-23T07:34:50.610Z,17.33
2022-10-23T07:37:25.792Z,17.30
2022-10-23T07:39:53.040Z,17.27
2022-10-23T07:42:20.369Z,17.31
2022-10-23T07:44:48.784Z,17.29
2022-10-23T07:47:15.794Z,17.35
2022-10-23T07:49:47.471Z,17.40
2022-10-23T07:52:14.672Z,17.52
2022-10-23T07:55:04.884Z,17.62
2022-10-23T07:57:34.505Z,17.71
2022-10-23T08:00:19.925Z,17.75
2022-10-23T08:02:56.365Z,17.85
2022-10-23T08:05:23.572Z,17.99
2022-10-23T08:07:57.037Z,18.00
2022-10-23T08:10:24.476Z,18.00
2022-10-23T08:12:51.613Z,18.07
2022-10-23T08:15:22.265Z,18.17
2022-10-23T08:17:57.979Z,18.02
2022-10-23T08:20:43.513Z,17.89
2022-10-23T08:23:16.589Z,17.96
2022-10-23T08:25:44.978Z,18.11
2022-10-23T08:28:13.484Z,18.19
2022-10-23T08:30:51.205Z,18.23
2022-10-23T08:33:18.764Z,18.19
2022-10-23T08:35:46.860Z,18.10
2022-10-23T08:38:16.941Z,18.11
2022-10-23T08:40:48.202Z,18.19
2022-10-23T08:43:50.572Z,18.32
2022-10-23T08:46:42.797Z,18.32
2022-10-23T08:49:45.774Z,18.26
2022-10-23T08:52:32.467Z,18.30
2022-10-23T08:55:35.604Z,18.47
2022-10-23T08:58:25.047Z,18.75
2022-10-23T09:00:52.755Z,18.78
2022-10-23T09:03:20.108Z,18.90
2022-10-23T09:06:12.450Z,18.96
2022-10-23T09:09:22.593Z,18.96
2022-10-23T09:12:07.777Z,18.99
2022-10-23T09:15:31.790Z,19.03
2022-10-23T09:18:12.531Z,19.19
2022-10-23T09:20:40.965Z,19.20
2022-10-23T09:23:17.505Z,19.04
2022-10-23T09:25:47.250Z,19.01
2022-10-23T09:28:22.996Z,19.16
2022-10-23T09:30:52.227Z,19.30
2022-10-23T09:33:24.354Z,19.43
2022-10-23T09:36:22.084Z,19.62
2022-10-23T09:38:50.864Z,19.73
2022-10-23T09:41:21.886Z,19.64
2022-10-23T09:43:59.987Z,19.61
2022-10-23T09:46:57.485Z,19.79
2022-10-23T09:49:27.159Z,19.97
2022-10-23T09:52:22.304Z,20.09
2022-10-23T09:54:53.666Z,20.08
2022-10-23T09:57:29.271Z,20.07
2022-10-23T10:00:00.800Z,20.29
2022-10-23T10:02:30.938Z,20.52
2022-10-23T10:05:38.590Z,20.51
2022-10-23T10:08:54.826Z,20.64
2022-10-23T10:11:54.267Z,20.79
2022-10-23T10:14:52.189Z,21.12
2022-10-23T10:17:40.314Z,21.25
2022-10-23T10:20:59.634Z,21.39
2022-10-23T10:24:12.086Z,21.13
2022-10-23T10:27:13.238Z,21.05
2022-10-23T10:30:10.682Z,21.18
2022-10-23T10:33:02.783Z,21.44
2022-10-23T10:35:53.125Z,21.53
2022-10-23T10:38:50.471Z,21.50
2022-10-23T10:41:55.658Z,21.51
2022-10-23T10:44:50.724Z,21.64
2022-10-23T10:47:25.813Z,21.69
2022-10-23T10:50:30.055Z,21.91
2022-10-23T10:53:42.831Z,22.00
2022-10-23T10:56:14.801Z,22.06
2022-10-23T10:58:54.253Z,22.12
2022-10-23T11:01:37.047Z,22.15
2022-10-23T11:04:33.005Z,22.22
2022-10-23T11:07:07.004Z,22.26
2022-10-23T11:09:34.109Z,22.13
2022-10-23T11:12:01.184Z,22.25
2022-10-23T11:14:33.502Z,22.44
2022-10-23T11:17:09.971Z,22.75
2022-10-23T11:20:29.172Z,22.82
2022-10-23T11:23:33.049Z,22.98
2022-10-23T11:26:25.704Z,23.08
2022-10-23T11:29:20.952Z,23.26
2022-10-23T11:32:35.739Z,23.04
2022-10-23T11:35:35.276Z,22.94
2022-10-23T11:38:30.800Z,23.05
2022-10-23T11:41:01.956Z,23.10
2022-10-23T11:43:50.594Z,23.15
2022-10-23T11:46:43.852Z,23.06
2022-10-23T11:49:21.546Z,23.02
2022-10-23T11:52:00.852Z,23.11
2022-10-23T11:54:28.074Z,23.50
2022-10-23T11:57:13.203Z,23.71
2022-10-23T12:00:01.026Z,23.56
2022-10-23T12:02:41.469Z,23.45
2022-10-23T12:05:27.542Z,23.58
2022-10-23T12:07:58.398Z,23.69
2022-10-23T12:10:35.050Z,23.58
2022-10-23T12:13:04.836Z,23.57
2022-10-23T12:15:35.932Z,23.53
2022-10-23T12:18:14.911Z,23.50
2022-10-23T12:21:02.595Z,23.53
2022-10-23T12:24:03.744Z,23.40
2022-10-23T12:26:50.947Z,23.65
2022-10-23T12:30:01.676Z,23.71
2022-10-23T12:32:37.546Z,23.99
2022-10-23T12:35:28.321Z,24.17
2022-10-23T12:38:10.604Z,24.11
2022-10-23T12:40:37.745Z,24.32
2022-10-23T12:43:30.293Z,24.17
2022-10-23T12:46:20.687Z,23.92
2022-10-23T12:48:49.798Z,23.99
2022-10-23T12:51:23.887Z,24.12
2022-10-23T12:53:51.408Z,24.35
2022-10-23T12:56:19.230Z,24.56
2022-10-23T12:58:51.570Z,24.61
2022-10-23T13:01:28.991Z,24.56
2022-10-23T13:04:13.527Z,24.24
2022-10-23T13:06:40.763Z,24.16
2022-10-23T13:09:22.434Z,24.36
2022-10-23T13:12:20.930Z,24.53
2022-10-23T13:15:03.730Z,24.48
2022-10-23T13:18:03.739Z,24.44
2022-10-23T13:20:35.389Z,24.45
2022-10-23T13:23:33.116Z,24.41
2022-10-23T13:26:07.132Z,24.67
2022-10-23T13:28:42.545Z,24.99
2022-10-23T13:31:36.029Z,25.18
2022-10-23T13:34:15.557Z,25.15
2022-10-23T13:36:53.682Z,25.04
2022-10-23T13:39:30.467Z,24.90
2022-10-23T13:42:01.712Z,24.52
2022-10-23T13:44:29.127Z,24.46
2022-10-23T13:46:56.776Z,24.45
2022-10-23T13:49:23.884Z,24.49
2022-10-23T13:51:56.567Z,24.44
2022-10-23T13:57:00.242Z,23.89
2022-10-23T13:59:27.377Z,23.69
2022-10-23T14:01:54.647Z,23.39
2022-10-23T14:04:21.944Z,23.16
2022-10-23T14:06:48.895Z,22.95
2022-10-23T14:09:18.490Z,22.95
2022-10-23T14:11:45.834Z,23.15
2022-10-23T14:14:13.020Z,23.38
2022-10-23T14:16:40.036Z,23.65
2022-10-23T14:19:08.617Z,23.88
2022-10-23T14:21:35.674Z,23.97
2022-10-23T14:24:02.757Z,23.59
2022-10-23T14:26:30.504Z,23.21
2022-10-23T14:29:02.325Z,22.92
2022-10-23T14:31:33.838Z,22.76
2022-10-23T14:34:02.055Z,22.55
2022-10-23T14:36:38.541Z,22.51
2022-10-23T14:39:16.736Z,22.24
2022-10-23T14:41:44.137Z,22.31
2022-10-23T14:44:11.398Z,22.20
2022-10-23T14:46:38.653Z,22.53
2022-10-23T14:49:06.118Z,23.09
2022-10-23T14:51:33.378Z,23.75
2022-10-23T14:54:02.547Z,23.98
2022-10-23T14:56:31.636Z,23.78
2022-10-23T14:59:03.046Z,23.43
2022-10-23T15:01:36.372Z,22.94
2022-10-23T15:04:04.544Z,22.64
2022-10-23T15:06:32.794Z,22.17
2022-10-23T15:08:59.922Z,21.71
2022-10-23T15:11:27.403Z,21.20
2022-10-23T15:13:55.238Z,20.96
2022-10-23T15:16:23.341Z,20.96
2022-10-23T15:18:51.274Z,20.75
2022-10-23T15:21:19.071Z,20.55
2022-10-23T15:23:46.976Z,20.28
2022-10-23T15:26:23.945Z,20.04
2022-10-23T15:28:56.634Z,19.95
2022-10-23T15:31:43.320Z,19.68
2022-10-23T15:34:22.488Z,19.35
2022-10-23T15:36:50.237Z,19.09
2022-10-23T15:39:23.874Z,18.85
2022-10-23T15:41:52.983Z,18.63
2022-10-23T15:44:24.895Z,18.47
2022-10-23T15:46:52.269Z,18.31
2022-10-23T15:49:19.767Z,18.17
2022-10-23T15:51:47.104Z,18.04
2022-10-23T15:54:19.200Z,17.95
2022-10-23T15:56:48.612Z,17.85
2022-10-23T15:59:15.896Z,17.81
2022-10-23T16:01:43.163Z,17.80
2022-10-23T16:04:10.408Z,17.77
2022-10-23T16:06:37.967Z,17.69
2022-10-23T16:09:05.021Z,17.58
2022-10-23T16:11:35.753Z,17.50
2022-10-23T16:14:04.301Z,17.38
2022-10-23T16:16:32.560Z,17.38
2022-10-23T16:19:01.073Z,17.33
2022-10-23T16:21:31.112Z,17.24
2022-10-23T16:24:00.109Z,17.30
2022-10-23T16:26:27.969Z,17.27
2022-10-23T16:28:56.977Z,17.26
2022-10-23T16:31:24.715Z,17.27
2022-10-23T16:33:53.027Z,17.31
2022-10-23T16:36:20.698Z,17.35
2022-10-23T16:39:18.314Z,17.33
2022-10-23T16:42:04.153Z,17.40
2022-10-23T16:44:43.870Z,17.37
2022-10-23T16:47:10.938Z,17.48
2022-10-23T16:49:37.986Z,17.51
2022-10-23T16:52:05.019Z,17.49
2022-10-23T16:54:31.983Z,17.35
2022-10-23T16:56:59.077Z,17.26
2022-10-23T16:59:25.961Z,17.17
2022-10-23T17:01:53.590Z,17.11
2022-10-23T17:04:20.725Z,16.99
2022-10-23T17:06:47.652Z,16.88
2022-10-23T17:09:15.012Z,16.78
2022-10-23T17:11:44.664Z,16.66
2022-10-23T17:14:15.664Z,16.58
2022-10-23T17:16:46.581Z,16.50
2022-10-23T17:19:32.749Z,16.50
2022-10-23T17:22:01.851Z,16.46
2022-10-23T17:24:28.873Z,16.42
2022-10-23T17:26:56.309Z,16.37
2022-10-23T17:29:23.261Z,16.34
2022-10-23T17:31:51.324Z,16.31
2022-10-23T17:34:22.331Z,16.27
2022-10-23T17:36:50.810Z,16.23
2022-10-23T17:39:21.206Z,16.23
2022-10-23T17:41:48.739Z,16.26
2022-10-23T17:44:16.118Z,16.27
2022-10-23T17:46:43.321Z,16.29
2022-10-23T17:49:10.903Z,16.25
2022-10-23T17:51:38.296Z,16.18
2022-10-23T17:54:09.214Z,16.16
2022-10-23T17:56:38.466Z,16.13
2022-10-23T17:59:12.811Z,16.09
2022-10-23T18:01:39.993Z,16.27
2022-10-23T18:04:08.205Z,16.18
2022-10-23T18:06:40.912Z,16.00
2022-10-23T18:09:08.098Z,15.91
2022-10-23T18:11:38.104Z,15.88
2022-10-23T18:14:06.442Z,15.87
2022-10-23T18:16:34.933Z,15.85
2022-10-23T18:19:02.001Z,15.86
2022-10-23T18:21:29.003Z,15.88
2022-10-23T18:23:58.277Z,15.85
2022-10-23T18:26:28.093Z,15.82
2022-10-23T18:28:57.470Z,15.77
2022-10-23T18:31:25.968Z,15.92
2022-10-23T18:34:01.677Z,15.89
2022-10-23T18:36:32.619Z,15.94
2022-10-23T18:38:59.695Z,15.95
2022-10-23T18:41:27.399Z,15.87
2022-10-23T18:43:54.984Z,15.98
2022-10-23T18:46:22.547Z,16.03
2022-10-23T18:48:50.982Z,16.11
2022-10-23T18:51:21.229Z,16.19
2022-10-23T18:53:49.004Z,16.08
2022-10-23T18:56:22.086Z,16.22
2022-10-23T18:58:51.054Z,16.23
2022-10-23T19:01:19.637Z,16.14
2022-10-23T19:03:46.980Z,16.11
2022-10-23T19:06:14.751Z,15.92
2022-10-23T19:08:43.299Z,15.80
2022-10-23T19:11:11.723Z,15.85
2022-10-23T19:13:39.701Z,15.77
2022-10-23T19:16:18.166Z,15.69
2022-10-23T19:18:53.043Z,15.64
2022-10-23T19:21:22.196Z,15.64
2022-10-23T19:23:49.934Z,15.63
2022-10-23T19:26:17.540Z,15.61
2022-10-23T19:28:47.484Z,15.63
2022-10-23T19:31:14.663Z,15.66
2022-10-23T19:33:41.781Z,15.72
2022-10-23T19:36:13.828Z,15.76
2022-10-23T19:38:42.136Z,15.84
2022-10-23T19:41:09.589Z,15.77
2022-10-23T19:43:37.910Z,15.78
2022-10-23T19:46:09.350Z,15.72
2022-10-23T19:48:42.613Z,15.60
2022-10-23T19:51:09.909Z,15.59
2022-10-23T19:53:37.077Z,15.45
2022-10-23T19:56:08.916Z,15.40
2022-10-23T19:58:35.972Z,15.44
2022-10-23T20:01:16.516Z,15.33
2022-10-23T20:03:45.667Z,15.16
2022-10-23T20:06:14.397Z,15.09
2022-10-23T20:08:41.977Z,14.96
2022-10-23T20:11:10.313Z,14.91
2022-10-23T20:13:37.275Z,14.84
2022-10-23T20:16:04.404Z,14.66
2022-10-23T20:18:31.624Z,14.48
2022-10-23T20:21:02.241Z,14.39
2022-10-23T20:23:29.313Z,14.35
2022-10-23T20:26:04.283Z,14.36
2022-10-23T20:28:31.200Z,14.35
2022-10-23T20:30:58.174Z,14.33
2022-10-23T20:33:25.502Z,14.39
2022-10-23T20:35:52.961Z,14.50
2022-10-23T20:38:20.231Z,14.73
2022-10-23T20:40:47.252Z,14.88
2022-10-23T20:43:14.294Z,14.77
2022-10-23T20:45:41.239Z,14.67
2022-10-23T20:48:08.203Z,14.52
2022-10-23T20:50:35.496Z,14.45
2022-10-23T20:53:02.569Z,14.47
2022-10-23T20:55:29.648Z,14.52
2022-10-23T20:57:56.581Z,14.55
2022-10-23T21:00:23.675Z,14.57
2022-10-23T21:02:52.652Z,14.54
2022-10-23T21:05:19.795Z,14.52
2022-10-23T21:07:46.872Z,14.49
2022-10-23T21:10:13.836Z,14.44
2022-10-23T21:12:40.934Z,14.31
2022-10-23T21:15:09.242Z,14.21
2022-10-23T21:17:38.992Z,14.20
2022-10-23T21:20:06.566Z,14.13
2022-10-23T21:22:33.487Z,14.10
2022-10-23T21:25:01.647Z,14.05
2022-10-23T21:27:28.704Z,14.01
2022-10-23T21:29:55.664Z,13.99
2022-10-23T21:32:22.779Z,13.97
2022-10-23T21:34:49.688Z,13.96
2022-10-23T21:37:16.696Z,13.96
2022-10-23T21:39:44.489Z,13.96
2022-10-23T21:42:13.289Z,13.99
2022-10-23T21:44:40.829Z,14.03
2022-10-23T21:47:07.872Z,14.09
2022-10-23T21:49:34.816Z,14.10
2022-10-23T21:52:01.726Z,14.12
2022-10-23T21:54:28.679Z,14.11
2022-10-23T21:56:55.802Z,14.09
2022-10-23T21:59:27.858Z,14.09
2022-10-23T22:01:57.381Z,14.05
2022-10-23T22:04:24.489Z,14.03
2022-10-23T22:06:51.449Z,14.02
2022-10-23T22:09:20.842Z,13.99
2022-10-23T22:11:54.806Z,13.95
2022-10-23T22:14:22.210Z,13.92
2022-10-23T22:16:49.403Z,13.88
2022-10-23T22:19:17.974Z,13.85
2022-10-23T22:21:45.384Z,13.84
2022-10-23T22:24:12.590Z,13.84
2022-10-23T22:26:42.930Z,13.84
2022-10-23T22:29:12.864Z,13.84
2022-10-23T22:31:44.147Z,13.82
2022-10-23T22:34:26.841Z,13.79
2022-10-23T22:37:04.312Z,13.76
2022-10-23T22:39:31.348Z,13.71
2022-10-23T22:41:58.412Z,13.61
2022-10-23T22:44:25.445Z,13.57
2022-10-23T22:46:52.508Z,13.55
2022-10-23T22:49:19.453Z,13.62
2022-10-23T22:51:46.493Z,13.54
2022-10-23T22:54:13.456Z,13.47
2022-10-23T22:56:40.523Z,13.46
2022-10-23T22:59:07.509Z,13.49
2022-10-23T23:01:36.406Z,13.51
2022-10-23T23:04:19.454Z,13.53
2022-10-23T23:06:50.631Z,13.53
2022-10-23T23:09:18.845Z,13.44
2022-10-23T23:11:51.755Z,13.38
2022-10-23T23:14:24.128Z,13.35
2022-10-23T23:16:53.044Z,13.32
2022-10-23T23:19:22.773Z,13.32
2022-10-23T23:21:49.911Z,13.33
2022-10-23T23:24:16.889Z,13.31
2022-10-23T23:26:43.861Z,13.28
2022-10-23T23:29:11.162Z,13.26
2022-10-23T23:31:38.199Z,13.20
2022-10-23T23:34:05.194Z,13.12
2022-10-23T23:36:32.762Z,13.06
2022-10-23T23:39:00.167Z,13.05
2022-10-23T23:41:28.631Z,13.06
2022-10-23T23:43:57.667Z,13.06
2022-10-23T23:46:25.527Z,13.05
2022-10-23T23:48:52.476Z,13.01
2022-10-23T23:51:24.940Z,13.00
2022-10-23T23:53:52.454Z,13.02
2022-10-23T23:56:20.514Z,13.03
2022-10-23T23:58:47.487Z,13.07
